Seward, AK

5:23 AM AKDT on August 28, 2014 (GMT -0800)
Seward | Change Station
CLOSE
Current Station
Airport
Location: Seward,
Elevation: 20 ft
Nearby Weather Stations

Elev 20 ft 60.13 °N, 149.42 °W | Updated 10 minutes ago

Light Rain
Light Rain Mist
51 °F
Feels Like 51 °F
N
5
Wind Variable Wind from North

Today
High -- | Low -- °F
--% Chance of Precip.
Yesterday
High -- | Low -- °F
Precip. -- in
6:43 AM 9:12 PM
Waxing Crescent, 8% visible
Pressure 29.67 in
Visibility 5.0 miles
Clouds Overcast 5500 ft
Dew Point 49 °F
Humidity 92%
Rainfall 0.25 in
Snow Depth 1 in , 9 in
UV 0 out of 12
Pollen Not available.
Air Quality Not available.
Flu Activity Not available.
SPECI PAWD 281313Z AUTO 35004KT 5SM -RA BR OVC055 11/09 A2967 RMK AO2 P0002 T01060094 TSNO

More Conditions Fewer Conditions

Pressure 29.67 in
Visibility 5.0 miles
Clouds Overcast 5500 ft
Dew Point 49 °F
Humidity 92%
Rainfall 0.25 in
Snow Depth 1 in , 9 in
UV 0 out of 12
Pollen Not available.
Air Quality Not available.
Flu Activity Not available.
SPECI PAWD 281313Z AUTO 35004KT 5SM -RA BR OVC055 11/09 A2967 RMK AO2 P0002 T01060094 TSNO

More Conditions Fewer Conditions

10-Day Weather Forecast

Almanac

Astronomy

Aug. 28, 2014 Rise Set
Actual Time 6:43 AM AKDT 9:12 PM AKDT
Civil Twilight 5:56 AM AKDT 9:58 PM AKDT
Nautical Twilight 4:55 AM AKDT 10:59 PM AKDT
Astronomical Twilight 3:28 AM AKDT 12:23 AM AKDT
Moon 10:42 AM AKDT 9:39 PM AKDT
Length of Visible Light 16h 01m
Length of Day
14h 29m
Tomorrow will be 5m 22s shorter.
Waxing Crescent, 8% of the Moon is Illuminated
Today
Waxing Crescent
Sep 2
First Quarter
Sep 8
Full
Sep 15
Last Quarter
Sep 24
New

Today's Extremes

State Highs State Lows

Community

WunderPhotos

Upload Photos

1,747,947 photos uploaded!

Nearby

Snow Depth

Station Depth Elevation
Grouse Creek Divide 1 in 700 ft
Cooper Lake 9 in 1200 ft
Summit Creek 0 in 1400 ft
Grandview 3 in 1100 ft
Turnagain Pass 2 in 1880 ft

Earthquake Activity

City Distance Mag. Time & Date
No recent earthquake activity has been reported nearby.
Minimum magnitude displayed is 2.5.

Coastal Water Temperatures

Place Temperature
No Stations Reporting

Nearby Weather Stations